Time;durP1;ratioP1;P1;durP2;ratioP2;P2;SDS_P1;SDS_P2;PMS_P1;PMS_P2;Temp;Humidity;BMP_temperature;BMP_pressure;BME280_temperature;BME280_humidity;BME280_pressure;Samples;Min_cycle;Max_cycle;Signal;HPM_P1;HPM_P2
2022/04/02 00:01:41;;;;;;;1.25;0.57;;;;;;;19.51;53.53;98582.03;4960110;28;20768;-41
2022/04/02 00:04:08;;;;;;;2.22;0.30;;;;;;;19.51;53.60;98584.66;4963393;28;20062;-48
2022/04/02 00:06:34;;;;;;;2.00;0.40;;;;;;;19.51;53.68;98591.78;4964408;28;20027;-43
2022/04/02 00:09:00;;;;;;;2.08;0.38;;;;;;;19.50;53.64;98593.59;4966419;28;20535;-45
2022/04/02 00:11:26;;;;;;;2.78;0.40;;;;;;;19.48;53.67;98590.41;4964148;28;20544;-41
2022/04/02 00:13:51;;;;;;;0.88;0.30;;;;;;;19.48;53.42;98598.34;4958870;28;20030;-48
2022/04/02 00:16:17;;;;;;;1.33;0.38;;;;;;;19.48;53.42;98597.53;4961435;28;20044;-44
2022/04/02 00:18:43;;;;;;;1.88;0.40;;;;;;;19.47;53.41;98593.28;4965100;28;20153;-46
2022/04/02 00:21:09;;;;;;;3.05;0.40;;;;;;;19.45;53.64;98585.63;4960562;28;21585;-44
2022/04/02 00:23:40;;;;;;;0.70;0.22;;;;;;;19.45;53.56;98582.19;4966248;28;20385;-48
2022/04/02 00:26:11;;;;;;;3.05;0.40;;;;;;;19.43;53.61;98576.34;4962253;28;20498;-44
2022/04/02 00:28:39;;;;;;;1.52;0.30;;;;;;;19.44;53.47;98583.22;4960761;28;20027;-43
2022/04/02 00:31:07;;;;;;;2.47;0.40;;;;;;;19.44;53.35;98584.03;4962210;28;20496;-42
2022/04/02 00:33:34;;;;;;;2.30;0.43;;;;;;;19.42;53.50;98580.84;4961314;28;20031;-46
2022/04/02 00:36:00;;;;;;;1.02;0.35;;;;;;;19.42;53.59;98580.84;4955838;28;20096;-47
2022/04/02 00:38:25;;;;;;;1.65;0.30;;;;;;;19.42;53.42;98580.84;4967303;28;20030;-47
2022/04/02 00:40:51;;;;;;;3.05;0.50;;;;;;;19.42;53.31;98580.84;4964560;28;20027;-41
2022/04/02 00:43:31;;;;;;;1.33;0.55;;;;;;;19.39;53.23;98581.31;4963223;28;20077;-49
2022/04/02 00:46:00;;;;;;;0.90;0.40;;;;;;;19.41;53.33;98581.88;4954498;28;20110;-45
2022/04/02 00:48:27;;;;;;;2.15;0.68;;;;;;;19.41;53.36;98583.72;4960434;28;20612;-40
2022/04/02 00:50:55;;;;;;;0.60;0.25;;;;;;;19.40;53.21;98582.91;4965053;28;20169;-45
2022/04/02 00:53:23;;;;;;;1.80;0.47;;;;;;;19.40;53.12;98575.00;4961836;28;20034;-45
2022/04/02 00:55:49;;;;;;;1.73;0.32;;;;;;;19.40;53.13;98577.63;4965340;28;20042;-43
2022/04/02 00:58:16;;;;;;;1.80;0.40;;;;;;;19.40;53.18;98563.63;4956259;28;20041;-46
2022/04/02 01:00:42;;;;;;;1.50;0.60;;;;;;;19.40;53.14;98566.28;4961793;28;20023;-41
2022/04/02 01:03:09;;;;;;;1.27;0.30;;;;;;;19.39;53.24;98575.25;4958931;28;20571;-47
2022/04/02 01:05:35;;;;;;;0.60;0.30;;;;;;;19.37;53.38;98572.09;4963865;28;20027;-42
2022/04/02 01:08:05;;;;;;;1.85;0.30;;;;;;;19.37;53.35;98575.53;4962355;28;20085;-44
2022/04/02 01:10:35;;;;;;;2.33;0.20;;;;;;;19.34;53.37;98578.66;4962752;28;20043;-45
2022/04/02 01:13:02;;;;;;;1.40;0.38;;;;;;;19.33;53.30;98584.97;4964359;28;20093;-45
2022/04/02 01:15:28;;;;;;;1.73;0.30;;;;;;;19.34;53.21;98581.28;4959795;28;20422;-46
2022/04/02 01:17:53;;;;;;;2.67;0.32;;;;;;;19.33;53.50;98582.34;4961319;28;20031;-43
2022/04/02 01:20:19;;;;;;;1.63;0.40;;;;;;;19.33;53.37;98586.81;4963833;28;20062;-44
2022/04/02 01:22:45;;;;;;;0.60;0.20;;;;;;;19.31;53.24;98581.78;4965252;28;20355;-43
2022/04/02 01:25:11;;;;;;;0.90;0.40;;;;;;;19.33;53.29;98584.19;4963303;28;20034;-41
2022/04/02 01:27:37;;;;;;;0.85;0.32;;;;;;;19.31;53.26;98588.91;4960605;28;20539;-43
2022/04/02 01:30:05;;;;;;;0.60;0.20;;;;;;;19.32;53.23;98585.22;4962461;28;20553;-46
2022/04/02 01:32:31;;;;;;;1.10;0.30;;;;;;;19.32;53.13;98580.75;4958783;28;20067;-45
2022/04/02 01:34:57;;;;;;;1.35;0.32;;;;;;;19.32;53.13;98586.03;4965135;28;20038;-42
2022/04/02 01:37:22;;;;;;;1.05;0.30;;;;;;;19.33;53.22;98568.34;4964709;28;20046;-47
2022/04/02 01:39:47;;;;;;;1.40;0.30;;;;;;;19.32;53.12;98575.47;4962861;28;20035;-44
2022/04/02 01:42:14;;;;;;;1.50;0.25;;;;;;;19.32;53.22;98580.75;4964994;28;20023;-44
2022/04/02 01:44:41;;;;;;;0.90;0.30;;;;;;;19.33;53.17;98581.53;4965336;28;20141;-46
2022/04/02 01:47:07;;;;;;;1.08;0.30;;;;;;;19.34;52.63;98583.13;4957671;28;20031;-42
2022/04/02 01:49:32;;;;;;;1.10;0.28;;;;;;;19.34;52.86;98581.28;4958579;28;20088;-43
2022/04/02 01:51:58;;;;;;;1.13;0.30;;;;;;;19.34;52.74;98583.94;4961549;28;20041;-44
2022/04/02 01:54:23;;;;;;;1.42;0.28;;;;;;;19.35;52.74;98582.09;4963435;28;20527;-44
2022/04/02 01:56:48;;;;;;;0.95;0.30;;;;;;;19.35;52.81;98582.88;4963223;28;20038;-44
2022/04/02 01:59:14;;;;;;;1.05;0.32;;;;;;;19.34;52.67;98578.66;4964675;28;20039;-42
2022/04/02 02:01:40;;;;;;;1.02;0.30;;;;;;;19.35;52.67;98585.53;4962354;28;20042;-41
2022/04/02 02:04:06;;;;;;;1.23;0.30;;;;;;;19.34;52.49;98577.84;4961584;28;20027;-42
2022/04/02 02:06:33;;;;;;;0.75;0.30;;;;;;;19.33;52.67;98587.63;4960005;28;20057;-43
2022/04/02 02:08:59;;;;;;;1.80;0.40;;;;;;;19.33;52.71;98584.19;4964031;28;20494;-45
2022/04/02 02:13:54;;;;;;;1.83;0.30;;;;;;;19.32;52.59;98579.94;4944638;28;20051;-47
2022/04/02 02:16:19;;;;;;;1.35;0.30;;;;;;;19.31;52.62;98583.63;4945831;28;20398;-44
2022/04/02 02:18:44;;;;;;;2.00;0.30;;;;;;;19.29;52.72;98581.22;4945757;28;20057;-45
2022/04/02 02:21:10;;;;;;;1.20;0.30;;;;;;;19.28;52.88;98584.13;4945942;28;20405;-42
2022/04/02 02:23:36;;;;;;;1.25;0.30;;;;;;;19.27;52.96;98588.59;4945880;28;20035;-43
2022/04/02 02:26:02;;;;;;;2.13;0.30;;;;;;;19.27;52.89;98593.88;4946224;28;20035;-47
2022/04/02 02:28:27;;;;;;;1.25;0.22;;;;;;;19.26;52.88;98596.75;4945878;28;20035;-46
2022/04/02 02:30:54;;;;;;;0.50;0.20;;;;;;;19.25;53.00;98593.31;4945750;28;20042;-44
2022/04/02 02:36:03;;;;;;;0.63;0.20;;;;;;;19.22;53.17;98591.19;4946175;28;20437;-45
2022/04/02 02:38:29;;;;;;;1.05;0.20;;;;;;;19.23;52.82;98598.06;4945870;28;20031;-45
2022/04/02 02:40:54;;;;;;;1.52;0.20;;;;;;;19.21;53.09;98593.03;4945806;28;20390;-44
2022/04/02 02:43:20;;;;;;;0.75;0.20;;;;;;;19.21;52.92;98590.38;4946209;28;20478;-41
2022/04/02 02:45:45;;;;;;;1.40;0.30;;;;;;;19.20;52.73;98585.34;4949181;28;20437;-44
2022/04/02 02:48:12;;;;;;;1.35;0.30;;;;;;;19.20;53.07;98582.69;4949180;28;20038;-50
2022/04/02 02:50:37;;;;;;;1.33;0.50;;;;;;;19.21;52.86;98584.31;4922026;28;20059;-44
2022/04/02 02:53:03;;;;;;;1.13;0.20;;;;;;;19.20;52.77;98569.50;4910637;28;20075;-45
2022/04/02 02:55:28;;;;;;;1.15;0.28;;;;;;;19.19;52.88;98573.19;4910951;29;20031;-48
2022/04/02 02:57:54;;;;;;;1.13;0.30;;;;;;;19.20;52.66;98569.50;4910869;29;20490;-44
2022/04/02 03:00:19;;;;;;;1.27;0.22;;;;;;;19.20;52.71;98575.59;4910535;29;20035;-45
2022/04/02 03:02:45;;;;;;;0.60;0.20;;;;;;;19.19;52.65;98571.34;4910800;28;20040;-46
2022/04/02 03:05:12;;;;;;;0.93;0.20;;;;;;;19.20;52.57;98572.94;4910651;29;20361;-45
2022/04/02 03:07:51;;;;;;;0.95;0.30;;;;;;;19.20;52.37;98572.16;4910504;29;20040;-44
2022/04/02 03:10:19;;;;;;;0.88;0.30;;;;;;;19.20;52.54;98572.16;4910661;29;20475;-44
2022/04/02 03:12:46;;;;;;;1.17;0.22;;;;;;;19.20;52.39;98567.66;4910420;29;20066;-47
2022/04/02 03:15:13;;;;;;;1.85;0.20;;;;;;;19.21;52.58;98571.09;4910373;29;20494;-48
2022/04/02 03:17:39;;;;;;;1.65;0.40;;;;;;;19.19;52.38;98568.72;4910611;29;20444;-46
2022/04/02 03:20:06;;;;;;;0.88;0.40;;;;;;;19.20;52.50;98580.06;4910561;28;20446;-44
2022/04/02 03:22:39;;;;;;;1.27;0.30;;;;;;;19.19;52.62;98573.19;4910438;29;20140;-45
2022/04/02 03:25:06;;;;;;;1.40;0.22;;;;;;;19.17;52.73;98564.72;4910297;28;20051;-44
2022/04/02 03:27:31;;;;;;;1.10;0.20;;;;;;;19.16;52.70;98565.75;4910645;29;20172;-45
2022/04/02 03:29:57;;;;;;;0.77;0.20;;;;;;;19.15;52.90;98566.81;4910211;29;20309;-44
2022/04/02 03:32:22;;;;;;;0.75;0.20;;;;;;;19.14;52.86;98578.41;4910281;29;20024;-45
2022/04/02 03:34:47;;;;;;;0.63;0.20;;;;;;;19.12;52.82;98580.50;4910289;29;20059;-46
2022/04/02 03:37:13;;;;;;;0.60;0.20;;;;;;;19.12;52.89;98591.03;4910349;29;20392;-44
2022/04/02 03:39:40;;;;;;;0.80;0.20;;;;;;;19.12;52.75;98597.13;4910017;29;20403;-44
2022/04/02 03:42:05;;;;;;;0.95;0.20;;;;;;;19.11;52.61;98600.81;4909890;29;20032;-46
2022/04/02 03:44:31;;;;;;;0.70;0.20;;;;;;;19.11;52.77;98600.81;4910258;28;20043;-43
2022/04/02 03:47:08;;;;;;;0.85;0.20;;;;;;;19.12;52.63;98602.41;4910021;29;20135;-48
2022/04/02 03:49:45;;;;;;;6.63;0.20;;;;;;;19.11;52.56;98611.38;4909958;29;20399;-43
2022/04/02 03:52:11;;;;;;;0.95;0.20;;;;;;;19.13;52.42;98611.91;4908481;29;20513;-50
2022/04/02 03:54:38;;;;;;;0.63;0.20;;;;;;;19.14;52.48;98618.00;4909465;28;20403;-46
2022/04/02 03:57:05;;;;;;;1.25;0.30;;;;;;;19.15;52.24;98632.78;4909752;29;20420;-44
2022/04/02 03:59:32;;;;;;;1.33;0.57;;;;;;;19.15;52.38;98643.34;4909830;29;20032;-44
2022/04/02 04:01:58;;;;;;;1.73;0.20;;;;;;;19.15;52.31;98653.91;4924185;28;20044;-48
2022/04/02 04:04:24;;;;;;;0.85;0.22;;;;;;;19.16;52.13;98663.44;4909952;29;20453;-42
2022/04/02 04:06:51;;;;;;;0.82;0.20;;;;;;;19.16;52.24;98655.50;4909799;29;20537;-44
2022/04/02 04:09:17;;;;;;;2.17;0.30;;;;;;;19.16;51.83;98639.66;4909693;29;20044;-42
2022/04/02 04:11:43;;;;;;;0.63;0.20;;;;;;;19.16;51.77;98629.91;4909691;28;20068;-44
2022/04/02 04:14:09;;;;;;;0.70;0.20;;;;;;;19.17;51.69;98618.31;4910023;29;20123;-45
2022/04/02 04:16:35;;;;;;;0.35;0.20;;;;;;;19.16;51.70;98614.06;4909903;28;20382;-45
2022/04/02 04:19:00;;;;;;;1.23;0.32;;;;;;;19.15;51.53;98624.88;4909561;29;20036;-44
2022/04/02 04:21:26;;;;;;;1.67;0.30;;;;;;;19.16;51.45;98634.38;4909739;29;20386;-41
2022/04/02 04:23:51;;;;;;;1.40;0.40;;;;;;;19.14;51.64;98633.84;4909591;29;20028;-44
2022/04/02 04:26:17;;;;;;;1.10;0.20;;;;;;;19.14;51.48;98647.84;4909706;29;20033;-42
2022/04/02 04:28:43;;;;;;;1.08;0.20;;;;;;;19.14;51.72;98658.38;4909460;29;20056;-43
2022/04/02 04:31:09;;;;;;;1.90;0.25;;;;;;;19.14;51.55;98670.78;4909592;29;20088;-44
2022/04/02 04:33:37;;;;;;;0.30;0.10;;;;;;;19.14;51.63;98668.16;4909398;29;20110;-45
2022/04/02 04:36:03;;;;;;;0.50;0.10;;;;;;;19.13;51.75;98666.56;4909366;29;20075;-44
2022/04/02 04:38:30;;;;;;;2.08;0.20;;;;;;;19.12;51.69;98662.31;4909162;28;20179;-46
2022/04/02 04:40:55;;;;;;;1.23;0.20;;;;;;;19.11;51.83;98660.72;4909474;29;20032;-45
2022/04/02 04:43:21;;;;;;;1.70;0.32;;;;;;;19.09;51.53;98660.97;4909444;29;20374;-43
2022/04/02 04:45:46;;;;;;;0.65;0.20;;;;;;;19.08;51.71;98663.84;4909518;28;20516;-44
2022/04/02 04:48:11;;;;;;;1.15;0.20;;;;;;;19.07;51.67;98657.75;4909087;29;20455;-44
2022/04/02 04:50:37;;;;;;;1.45;0.20;;;;;;;19.05;51.67;98661.69;4908914;29;20028;-45
2022/04/02 04:53:02;;;;;;;0.95;0.20;;;;;;;19.05;51.69;98662.47;4909020;29;20036;-42
2022/04/02 04:55:28;;;;;;;0.88;0.17;;;;;;;19.04;51.64;98668.81;4909086;29;20028;-42
2022/04/02 04:57:54;;;;;;;0.55;0.20;;;;;;;19.04;51.70;98665.38;4909184;29;20039;-43
2022/04/02 05:00:20;;;;;;;0.60;0.10;;;;;;;19.02;51.69;98667.44;4909254;29;20032;-46
2022/04/02 05:02:47;;;;;;;0.93;0.20;;;;;;;19.02;51.70;98668.25;4909061;28;20542;-42
2022/04/02 05:05:13;;;;;;;0.93;0.20;;;;;;;19.01;51.78;98671.91;4907731;29;20534;-43
2022/04/02 05:07:40;;;;;;;0.65;0.20;;;;;;;19.01;51.84;98679.03;4908711;29;20028;-46
2022/04/02 05:10:08;;;;;;;0.43;0.10;;;;;;;19.00;51.73;98682.72;4909052;29;20111;-45
2022/04/02 05:12:34;;;;;;;0.95;0.17;;;;;;;19.01;51.74;98689.59;4908440;28;20060;-44
2022/04/02 05:15:00;;;;;;;0.75;0.10;;;;;;;19.01;51.79;98689.59;4908797;28;20487;-43
2022/04/02 05:17:26;;;;;;;1.05;0.20;;;;;;;19.00;51.68;98690.63;4908832;29;20028;-45
2022/04/02 05:19:52;;;;;;;0.80;0.10;;;;;;;19.00;51.59;98685.34;4908655;29;20455;-43
2022/04/02 05:22:17;;;;;;;1.35;0.20;;;;;;;18.99;51.68;98687.19;4922921;29;20083;-44
2022/04/02 05:24:43;;;;;;;0.60;0.13;;;;;;;19.00;51.50;98688.78;4908592;29;20032;-43
2022/04/02 05:27:09;;;;;;;0.30;0.15;;;;;;;19.01;51.33;98690.41;4908679;29;20036;-43
2022/04/02 05:29:35;;;;;;;0.80;0.20;;;;;;;19.01;51.35;98695.69;4908496;28;20086;-48
2022/04/02 05:32:00;;;;;;;2.38;0.20;;;;;;;19.01;51.35;98694.88;4908279;29;20032;-46
2022/04/02 05:34:26;;;;;;;0.35;0.10;;;;;;;19.01;51.31;98698.31;4909003;28;20039;-48
2022/04/02 05:36:51;;;;;;;1.00;0.25;;;;;;;19.01;51.46;98710.72;4908465;28;20449;-43
2022/04/02 05:39:17;;;;;;;0.52;0.20;;;;;;;19.01;51.39;98710.72;4908582;28;20136;-45
2022/04/02 05:41:43;;;;;;;0.50;0.10;;;;;;;19.00;51.51;98719.66;4908250;28;20862;-44
2022/04/02 05:44:09;;;;;;;0.68;0.20;;;;;;;18.99;51.44;98724.16;4908432;29;20400;-42
2022/04/02 05:46:35;;;;;;;1.15;0.15;;;;;;;18.98;51.56;98724.38;4908480;28;20036;-48
2022/04/02 05:49:00;;;;;;;0.52;0.10;;;;;;;18.98;51.60;98732.31;4908526;29;20111;-46
2022/04/02 05:51:26;;;;;;;1.05;0.10;;;;;;;18.96;51.65;98734.38;4908193;29;20159;-43
2022/04/02 05:53:52;;;;;;;0.40;0.10;;;;;;;18.95;51.62;98738.06;4908479;28;20040;-43
2022/04/02 05:56:19;;;;;;;0.57;0.20;;;;;;;18.95;51.56;98735.41;4908441;29;20054;-43
2022/04/02 05:58:45;;;;;;;1.60;0.10;;;;;;;18.94;51.61;98741.75;4908077;29;20607;-42
2022/04/02 06:01:11;;;;;;;1.70;0.17;;;;;;;18.92;51.69;98747.25;4908921;28;20028;-47
2022/04/02 06:03:39;;;;;;;0.98;0.20;;;;;;;18.90;51.79;98750.13;4917297;28;20110;-47
2022/04/02 06:06:07;;;;;;;0.88;0.20;;;;;;;18.93;51.52;98753.34;4908320;29;20121;-44
2022/04/02 06:08:33;;;;;;;0.57;0.20;;;;;;;18.94;51.56;98762.84;4926686;29;20067;-49
2022/04/02 06:10:58;;;;;;;0.85;0.10;;;;;;;18.94;51.63;98763.66;4926353;29;20113;-45
2022/04/02 06:13:24;;;;;;;3.15;0.22;;;;;;;18.96;51.66;98766.06;4909406;29;20044;-45
2022/04/02 06:15:49;;;;;;;1.13;0.20;;;;;;;18.97;51.68;98762.38;4939822;28;20039;-41
2022/04/02 06:18:18;;;;;;;0.47;0.10;;;;;;;19.00;51.56;98761.91;4944320;28;20077;-43
2022/04/02 06:20:50;;;;;;;1.30;0.30;;;;;;;19.03;51.75;98764.06;4945744;28;20028;-46
2022/04/02 06:23:16;;;;;;;0.90;0.20;;;;;;;19.09;51.74;98765.75;4946072;28;20027;-43
2022/04/02 06:25:41;;;;;;;1.00;0.30;;;;;;;19.14;51.94;98773.72;4946107;28;20047;-48
2022/04/02 06:28:07;;;;;;;0.80;0.10;;;;;;;19.17;51.75;98768.78;4946021;28;20035;-45
2022/04/02 06:30:33;;;;;;;1.58;0.10;;;;;;;19.22;51.78;98775.97;4945855;28;20070;-46
2022/04/02 06:33:00;;;;;;;0.60;0.20;;;;;;;19.28;51.80;98780.28;4944998;28;20066;-51
2022/04/02 06:35:27;;;;;;;0.65;0.20;;;;;;;19.33;52.03;98793.56;4945547;28;20479;-44
2022/04/02 06:37:56;;;;;;;1.65;0.30;;;;;;;19.34;52.18;98800.47;4944280;29;20043;-39
2022/04/02 06:40:23;;;;;;;1.02;0.20;;;;;;;19.37;52.46;98802.63;4945658;28;20562;-48
2022/04/02 06:42:49;;;;;;;0.82;0.38;;;;;;;19.40;52.48;98807.38;4945821;28;20091;-43
2022/04/02 06:45:15;;;;;;;8.00;0.20;;;;;;;19.44;52.38;98805.88;4946183;28;20486;-48
2022/04/02 06:47:40;;;;;;;1.10;0.20;;;;;;;19.49;52.44;98813.06;4944309;29;20448;-46
2022/04/02 06:50:08;;;;;;;1.55;0.35;;;;;;;19.51;52.76;98814.47;4926925;28;20035;-47
2022/04/02 06:52:34;;;;;;;0.60;0.10;;;;;;;19.54;52.79;98821.91;4907387;29;20199;-46
2022/04/02 06:55:00;;;;;;;3.70;0.75;;;;;;;19.59;52.77;98829.09;4907422;29;20451;-47
2022/04/02 06:57:25;;;;;;;0.73;0.10;;;;;;;19.62;52.80;98833.09;4907653;29;20039;-43
2022/04/02 06:59:51;;;;;;;2.35;0.20;;;;;;;19.63;52.54;98834.69;4907572;29;20028;-42
2022/04/02 07:02:16;;;;;;;4.93;0.20;;;;;;;19.66;52.37;98839.50;4907259;29;20043;-44
2022/04/02 07:04:42;;;;;;;2.90;0.25;;;;;;;19.69;52.42;98847.75;4907295;29;20136;-42
2022/04/02 07:07:08;;;;;;;1.23;0.20;;;;;;;19.72;52.20;98854.38;4907285;29;20039;-43
2022/04/02 07:09:34;;;;;;;1.20;0.13;;;;;;;19.72;51.96;98852.53;4907146;29;20046;-46
2022/04/02 07:12:00;;;;;;;3.67;0.20;;;;;;;19.74;52.09;98854.94;4906932;28;20048;-45
2022/04/02 07:14:25;;;;;;;0.70;0.20;;;;;;;19.75;51.91;98867.13;4907169;29;20115;-46
2022/04/02 07:16:51;;;;;;;0.88;0.28;;;;;;;19.74;51.88;98862.88;4907005;29;20059;-47
2022/04/02 07:19:20;;;;;;;1.55;0.22;;;;;;;19.73;52.27;98877.13;4907173;29;20105;-44
2022/04/02 07:21:47;;;;;;;4.47;0.10;;;;;;;19.73;52.19;98883.22;4907434;29;20119;-44
2022/04/02 07:24:13;;;;;;;2.55;0.10;;;;;;;19.74;52.09;98884.00;4907203;29;20032;-42
2022/04/02 07:26:39;;;;;;;3.13;0.10;;;;;;;19.73;52.28;98885.03;4919602;29;20075;-45
2022/04/02 07:29:09;;;;;;;0.50;0.22;;;;;;;19.73;52.22;98891.13;4926840;28;20470;-41
2022/04/02 07:31:34;;;;;;;0.63;0.10;;;;;;;19.73;51.98;98895.63;4927926;29;20063;-45
2022/04/02 07:34:00;;;;;;;0.30;0.10;;;;;;;19.72;51.87;98897.47;4929282;29;20078;-44
2022/04/02 07:36:38;;;;;;;4.78;0.40;;;;;;;19.73;52.07;98901.69;4928369;29;20063;-45
2022/04/02 07:39:14;;;;;;;5.40;0.20;;;;;;;19.70;51.95;98907.47;4929492;28;20047;-45
2022/04/02 07:41:46;;;;;;;8.20;0.57;;;;;;;19.69;51.97;98908.50;4928519;28;20071;-45
2022/04/02 07:44:25;;;;;;;0.95;0.10;;;;;;;19.69;51.88;98907.72;4941466;28;20039;-47
2022/04/02 07:46:52;;;;;;;0.77;0.10;;;;;;;19.71;51.97;98918.84;4928310;29;20036;-47
2022/04/02 07:49:21;;;;;;;1.80;0.10;;;;;;;19.71;52.00;98921.47;4933484;28;20036;-44
2022/04/02 07:51:53;;;;;;;1.85;0.20;;;;;;;19.75;51.83;98935.81;4939153;28;20070;-41
2022/04/02 07:54:23;;;;;;;5.28;0.20;;;;;;;19.78;51.60;98932.69;4925871;28;20028;-48
2022/04/02 07:56:50;;;;;;;3.75;0.10;;;;;;;19.83;51.30;98940.69;4929571;29;20498;-43
2022/04/02 07:59:32;;;;;;;3.70;0.20;;;;;;;19.84;51.24;98940.47;4936722;28;20059;-46
2022/04/02 08:01:59;;;;;;;0.93;0.20;;;;;;;19.85;51.25;98942.03;4919580;29;20399;-45
2022/04/02 08:04:25;;;;;;;5.00;0.20;;;;;;;19.85;51.07;98955.25;4928821;29;20069;-46
2022/04/02 08:06:52;;;;;;;4.25;0.25;;;;;;;19.87;51.13;98958.44;4928496;28;20036;-44
2022/04/02 08:09:19;;;;;;;0.77;0.20;;;;;;;19.87;51.03;98969.03;4928978;28;20027;-48
2022/04/02 08:11:48;;;;;;;4.55;0.20;;;;;;;19.89;50.63;98971.41;4931620;28;20548;-43
2022/04/02 08:14:14;;;;;;;1.30;0.20;;;;;;;19.89;50.91;98972.22;4933298;28;20031;-45
2022/04/02 08:16:43;;;;;;;1.65;0.22;;;;;;;19.91;50.88;98981.75;4929171;28;20031;-48
2022/04/02 08:19:09;;;;;;;3.22;0.17;;;;;;;19.91;50.80;98989.69;4928429;29;20028;-45
2022/04/02 08:21:36;;;;;;;1.08;0.10;;;;;;;19.92;50.76;98997.38;4948362;28;20036;-45
2022/04/02 08:24:03;;;;;;;1.63;0.30;;;;;;;19.93;50.42;99009.53;4928559;28;20154;-48
2022/04/02 08:26:45;;;;;;;0.82;0.10;;;;;;;19.92;50.27;99007.94;4928194;28;20114;-46
2022/04/02 08:29:42;;;;;;;12.15;0.30;;;;;;;19.92;50.20;99010.59;4937333;28;20043;-48
2022/04/02 08:32:22;;;;;;;1.95;0.20;;;;;;;19.91;50.45;99016.91;4917569;28;20043;-47
2022/04/02 08:35:16;;;;;;;2.78;0.20;;;;;;;19.91;50.38;99034.63;4928478;29;20028;-41
2022/04/02 08:38:03;;;;;;;0.88;0.10;;;;;;;19.88;50.47;99044.63;4925915;28;20055;-46
2022/04/02 08:40:46;;;;;;;1.60;0.20;;;;;;;19.85;50.43;99046.94;4927212;28;20471;-45
2022/04/02 08:43:32;;;;;;;3.17;0.35;;;;;;;19.83;50.14;99052.50;4927578;28;20049;-46
2022/04/02 08:46:12;;;;;;;4.07;0.20;;;;;;;19.83;50.15;99054.34;4930115;28;20566;-46
2022/04/02 08:48:52;;;;;;;2.53;0.13;;;;;;;19.81;49.74;99064.34;4926859;29;20048;-43
2022/04/02 08:51:38;;;;;;;0.85;0.10;;;;;;;19.80;49.05;99075.94;4926646;28;20398;-46
2022/04/02 08:54:06;;;;;;;2.13;0.63;;;;;;;19.81;49.33;99080.19;4907300;28;20051;-48
2022/04/02 08:56:37;;;;;;;1.65;0.13;;;;;;;19.80;49.04;99089.97;4929444;28;20036;-47
2022/04/02 08:59:04;;;;;;;6.88;0.35;;;;;;;19.80;48.58;99099.72;4927121;29;20042;-48
2022/04/02 09:01:57;;;;;;;3.17;0.20;;;;;;;19.79;48.20;99125.34;4928413;28;20154;-45
2022/04/02 09:04:46;;;;;;;5.40;0.30;;;;;;;19.77;48.13;99127.44;4927952;28;20039;-46
2022/04/02 09:07:30;;;;;;;3.80;0.15;;;;;;;19.79;48.35;99129.84;4927804;29;20028;-44
2022/04/02 09:10:07;;;;;;;1.67;0.20;;;;;;;19.77;48.27;99137.19;4945349;28;20058;-46
2022/04/02 09:12:46;;;;;;;6.03;0.20;;;;;;;19.77;48.51;99132.72;4917924;28;20114;-43
2022/04/02 09:15:20;;;;;;;4.25;0.10;;;;;;;19.82;48.55;99155.81;4926455;28;20091;-47
2022/04/02 09:18:21;;;;;;;0.52;0.10;;;;;;;19.77;48.80;99148.56;4927758;29;20069;-44
2022/04/02 09:20:55;;;;;;;2.30;0.10;;;;;;;19.76;48.98;99151.47;4927688;28;20050;-47
2022/04/02 09:23:29;;;;;;;2.55;0.10;;;;;;;19.76;48.91;99152.25;4925143;28;20097;-47
2022/04/02 09:26:00;;;;;;;2.63;0.15;;;;;;;19.74;48.99;99159.63;4927757;29;20039;-43
2022/04/02 09:28:37;;;;;;;1.52;0.10;;;;;;;19.72;48.86;99164.34;4927455;29;20044;-46
2022/04/02 09:31:27;;;;;;;2.60;0.10;;;;;;;19.69;48.54;99166.63;4923907;29;20054;-43
2022/04/02 09:34:24;;;;;;;0.65;0.10;;;;;;;19.67;48.52;99163.44;4923164;29;20055;-46
2022/04/02 09:36:53;;;;;;;;;;;;;;;19.58;48.42;99170.13;4924292;29;20024;-47
2022/04/02 09:39:37;;;;;;;1.35;0.20;;;;;;;19.60;48.98;99173.31;4924039;29;19964;-44
2022/04/02 09:42:41;;;;;;;3.72;0.30;;;;;;;19.59;48.87;99166.44;4924567;29;20047;-47
2022/04/02 09:45:12;;;;;;;3.15;0.20;;;;;;;19.62;49.12;99160.69;4926238;29;20283;-43
2022/04/02 09:47:59;;;;;;;5.50;0.30;;;;;;;19.63;49.45;99176.31;4926689;28;20031;-44
2022/04/02 09:50:27;;;;;;;4.32;0.30;;;;;;;19.65;49.71;99179.50;4925709;29;20176;-52
2022/04/02 09:53:14;;;;;;;2.90;0.45;;;;;;;19.63;49.81;99175.50;4925371;29;20035;-45
2022/04/02 09:56:17;;;;;;;3.90;0.40;;;;;;;19.62;49.80;99181.81;4926905;29;20082;-51
2022/04/02 09:59:01;;;;;;;1.15;0.10;;;;;;;19.65;49.46;99186.63;4926971;28;20035;-50
2022/04/02 10:01:35;;;;;;;3.80;0.30;;;;;;;19.66;49.64;99189.06;4927515;28;20040;-53
2022/04/02 10:04:09;;;;;;;2.50;0.20;;;;;;;19.68;49.77;99189.63;4927487;28;20035;-46
2022/04/02 10:06:39;;;;;;;5.05;0.25;;;;;;;19.71;50.80;99185.72;4925629;28;20042;-46
2022/04/02 10:09:06;;;;;;;5.65;0.20;;;;;;;19.73;51.10;99191.56;4924835;28;20130;-56
2022/04/02 10:11:34;;;;;;;3.30;0.20;;;;;;;19.76;52.39;99196.38;4924425;29;20036;-48
2022/04/02 10:14:03;;;;;;;0.93;0.20;;;;;;;19.77;54.28;99198.78;4927103;29;20048;-49
2022/04/02 10:16:30;;;;;;;2.60;0.25;;;;;;;19.79;56.23;99209.13;4927066;29;20467;-50
2022/04/02 10:18:58;;;;;;;3.67;0.20;;;;;;;19.79;56.15;99209.13;4924687;29;20051;-48
2022/04/02 10:21:24;;;;;;;0.52;0.20;;;;;;;19.77;54.92;99213.84;4926512;29;20040;-55
2022/04/02 10:24:22;;;;;;;2.90;0.20;;;;;;;19.72;53.47;99219.03;4927185;28;20386;-44
2022/04/02 10:26:56;;;;;;;0.90;0.20;;;;;;;19.72;52.88;99216.38;4919018;28;20048;-51
2022/04/02 10:30:00;;;;;;;3.30;0.20;;;;;;;19.69;51.97;99219.50;4923537;29;20058;-46
2022/04/02 10:32:38;;;;;;;7.43;0.20;;;;;;;19.70;52.03;99215.81;4932063;28;20074;-46
2022/04/02 10:35:06;;;;;;;6.35;0.28;;;;;;;19.69;51.48;99214.19;4920817;28;20526;-52
2022/04/02 10:37:40;;;;;;;3.25;0.57;;;;;;;19.69;51.08;99208.91;4915806;29;20047;-46
2022/04/02 10:40:17;;;;;;;2.15;0.28;;;;;;;19.67;50.95;99214.44;4924900;29;20451;-52
2022/04/02 10:42:51;;;;;;;19.10;0.50;;;;;;;19.67;50.75;99222.38;4927907;29;20043;-51
2022/04/02 10:45:19;;;;;;;4.32;0.15;;;;;;;19.69;50.64;99222.13;4927391;28;20522;-44
2022/04/02 10:48:03;;;;;;;1.83;0.20;;;;;;;19.64;50.43;99233.41;4920345;28;20031;-45
2022/04/02 10:50:30;;;;;;;0.70;0.10;;;;;;;19.65;50.28;99228.91;4920018;28;20090;-50
2022/04/02 10:53:00;;;;;;;6.45;0.35;;;;;;;19.64;50.01;99227.31;4922603;28;20039;-46
2022/04/02 10:55:27;;;;;;;4.35;0.50;;;;;;;19.63;50.17;99226.50;4927999;28;20568;-46
2022/04/02 10:57:53;;;;;;;1.15;0.17;;;;;;;19.62;49.99;99227.53;4933674;28;20032;-45
2022/04/02 11:00:19;;;;;;;4.22;0.35;;;;;;;19.62;49.73;99234.66;4921379;28;20451;-43
2022/04/02 11:02:49;;;;;;;2.47;0.20;;;;;;;19.61;49.88;99228.56;4919938;29;20694;-45
2022/04/02 11:05:16;;;;;;;4.43;0.35;;;;;;;19.62;50.01;99237.31;4925377;29;20087;-43
2022/04/02 11:07:49;;;;;;;1.98;0.20;;;;;;;19.61;49.90;99238.34;4951610;28;20027;-54
2022/04/02 11:10:21;;;;;;;1.70;0.20;;;;;;;19.61;49.96;99238.34;4924272;28;20059;-46
2022/04/02 11:12:49;;;;;;;6.22;0.45;;;;;;;19.60;50.41;99232.25;4919159;28;20059;-56
2022/04/02 11:15:21;;;;;;;4.38;0.40;;;;;;;19.59;50.55;99237.78;4924571;29;20040;-44
2022/04/02 11:17:49;;;;;;;5.00;0.40;;;;;;;19.60;50.49;99236.72;4922866;28;20090;-47
2022/04/02 11:20:20;;;;;;;6.03;0.45;;;;;;;19.71;52.48;99241.19;4924122;28;20063;-50
2022/04/02 11:22:55;;;;;;;25.13;4.00;;;;;;;19.91;53.08;99248.72;4926125;29;20138;-49
2022/04/02 11:25:25;;;;;;;98.88;10.90;;;;;;;19.98;53.32;99249.38;4932659;28;20035;-47
2022/04/02 11:27:54;;;;;;;228.68;42.80;;;;;;;20.08;56.05;99244.28;4925013;28;20055;-52
2022/04/02 11:30:21;;;;;;;163.70;29.92;;;;;;;20.16;58.18;99246.56;4924530;29;20036;-57
2022/04/02 11:32:48;;;;;;;190.63;39.55;;;;;;;20.34;62.45;99248.19;4924778;28;20502;-50
2022/04/02 11:35:21;;;;;;;124.40;33.35;;;;;;;20.62;62.65;99258.78;4921845;28;20043;-53
2022/04/02 11:38:27;;;;;;;185.45;44.72;;;;;;;20.95;65.68;99246.59;4922202;29;20032;-55
2022/04/02 11:41:32;;;;;;;129.38;39.45;;;;;;;20.97;60.81;99252.47;4924409;29;20094;-48
2022/04/02 11:44:50;;;;;;;139.30;33.90;;;;;;;20.77;57.38;99253.75;4925611;29;20510;-55
2022/04/02 11:47:25;;;;;;;33.78;7.78;;;;;;;20.72;52.30;99261.63;4927819;28;20047;-48
2022/04/02 11:49:54;;;;;;;32.15;7.25;;;;;;;20.68;52.45;99252.53;4933536;28;20036;-54